Time;durP1;ratioP1;P1;durP2;ratioP2;P2;SDS_P1;SDS_P2;PMS_P1;PMS_P2;Temp;Humidity;BMP_temperature;BMP_pressure;BME280_temperature;BME280_humidity;BME280_pressure;Samples;Min_cycle;Max_cycle;Signal;HPM_P1;HPM_P2
2022/04/03 00:01:28;;;;;;;;;;;19.90;99.90;;;;;;5075325;28;20359;-71
2022/04/03 00:03:55;;;;;;;;;;;19.90;99.90;;;;;;5075139;28;19922;-70
2022/04/03 00:06:24;;;;;;;;;;;20.00;99.90;;;;;;5075088;28;19908;-71
2022/04/03 00:08:51;;;;;;;;;;;20.00;99.90;;;;;;5074967;28;19919;-70
2022/04/03 00:11:18;;;;;;;;;;;20.10;99.90;;;;;;5074918;28;19912;-70
2022/04/03 00:13:44;;;;;;;;;;;20.10;99.90;;;;;;5075060;28;19915;-70
2022/04/03 00:16:11;;;;;;;;;;;20.30;99.90;;;;;;5074726;28;19909;-70
2022/04/03 00:18:38;;;;;;;;;;;20.30;99.90;;;;;;5074975;28;19916;-70
2022/04/03 00:21:05;;;;;;;;;;;20.30;99.90;;;;;;5074828;28;19959;-70
2022/04/03 00:23:32;;;;;;;;;;;20.30;99.90;;;;;;5074767;28;19913;-70
2022/04/03 00:25:58;;;;;;;;;;;20.50;99.90;;;;;;5074574;28;20360;-70
2022/04/03 00:28:28;;;;;;;;;;;20.70;99.90;;;;;;5074775;28;20050;-70
2022/04/03 00:30:55;;;;;;;;;;;20.70;99.90;;;;;;5074670;28;19916;-70
2022/04/03 00:33:22;;;;;;;;;;;20.70;99.90;;;;;;5074688;28;19978;-69
2022/04/03 00:35:50;;;;;;;;;;;20.60;99.90;;;;;;5074529;28;20370;-70
2022/04/03 00:38:17;;;;;;;;;;;20.60;99.90;;;;;;5074037;28;19915;-70
2022/04/03 00:40:44;;;;;;;;;;;20.60;99.90;;;;;;5073440;28;20358;-70
2022/04/03 00:43:11;;;;;;;;;;;20.60;99.90;;;;;;5074478;28;19916;-70
2022/04/03 00:45:48;;;;;;;;;;;20.50;99.90;;;;;;5074240;28;19919;-71
2022/04/03 00:48:14;;;;;;;;;;;20.60;99.90;;;;;;5074210;28;20004;-71
2022/04/03 00:50:41;;;;;;;;;;;20.70;99.90;;;;;;5074147;28;19916;-70
2022/04/03 00:53:08;;;;;;;;;;;20.90;99.90;;;;;;5074207;28;19916;-71
2022/04/03 00:55:35;;;;;;;;;;;21.00;99.90;;;;;;5074088;28;20334;-71
2022/04/03 00:58:04;;;;;;;;;;;21.10;99.90;;;;;;5074021;28;19909;-71
2022/04/03 01:00:31;;;;;;;;;;;21.20;99.90;;;;;;5073936;28;20343;-70
2022/04/03 01:02:58;;;;;;;;;;;21.20;99.80;;;;;;5073918;28;20391;-70
2022/04/03 01:05:25;;;;;;;;;;;21.00;99.90;;;;;;5073691;28;20018;-71
2022/04/03 01:07:51;;;;;;;;;;;21.10;99.90;;;;;;5073960;28;20383;-71
2022/04/03 01:10:18;;;;;;;;;;;21.10;99.90;;;;;;5073531;28;19963;-71
2022/04/03 01:12:45;;;;;;;;;;;21.10;99.90;;;;;;5074008;28;19924;-71
2022/04/03 01:15:15;;;;;;;;;;;21.10;99.90;;;;;;5073755;28;19908;-71
2022/04/03 01:17:42;;;;;;;;;;;21.30;99.70;;;;;;5073638;28;19909;-70
2022/04/03 01:20:09;;;;;;;;;;;21.50;99.70;;;;;;5073531;28;19915;-70
2022/04/03 01:22:36;;;;;;;;;;;21.70;98.60;;;;;;5073759;28;20359;-70
2022/04/03 01:25:04;;;;;;;;;;;21.80;98.60;;;;;;5073484;28;19909;-70
2022/04/03 01:27:30;;;;;;;;;;;21.80;99.20;;;;;;5073552;28;20274;-71
2022/04/03 01:29:57;;;;;;;;;;;21.90;99.80;;;;;;5073356;28;19956;-72
2022/04/03 01:32:24;;;;;;;;;;;21.90;99.80;;;;;;5073287;28;20003;-70
2022/04/03 01:34:51;;;;;;;;;;;22.00;99.80;;;;;;5073528;28;19908;-71
2022/04/03 01:37:18;;;;;;;;;;;22.20;99.90;;;;;;5073654;28;19955;-71
2022/04/03 01:39:44;;;;;;;;;;;22.50;99.90;;;;;;5073447;28;19908;-71
2022/04/03 01:42:11;;;;;;;;;;;22.40;99.30;;;;;;5073327;28;20305;-71
2022/04/03 01:44:38;;;;;;;;;;;22.20;97.40;;;;;;5073292;28;19913;-70
2022/04/03 01:47:04;;;;;;;;;;;22.20;98.00;;;;;;5073396;28;20000;-70
2022/04/03 01:49:31;;;;;;;;;;;22.20;97.40;;;;;;5073386;28;20282;-70
2022/04/03 01:51:58;;;;;;;;;;;22.20;96.20;;;;;;5073243;28;20282;-71
2022/04/03 01:54:24;;;;;;;;;;;22.20;95.60;;;;;;5073016;28;19916;-70
2022/04/03 01:56:51;;;;;;;;;;;22.10;96.50;;;;;;5073721;28;19908;-71
2022/04/03 01:59:18;;;;;;;;;;;22.10;95.50;;;;;;5073265;28;19912;-71
2022/04/03 02:01:44;;;;;;;;;;;22.20;96.30;;;;;;5073231;28;19931;-71
2022/04/03 02:04:12;;;;;;;;;;;22.20;95.20;;;;;;5072826;28;20325;-71
2022/04/03 02:06:40;;;;;;;;;;;22.20;95.80;;;;;;5073311;28;19975;-71
2022/04/03 02:09:08;;;;;;;;;;;22.30;95.80;;;;;;5073016;28;19913;-70
2022/04/03 02:11:35;;;;;;;;;;;22.30;95.90;;;;;;5073316;28;20359;-70
2022/04/03 02:14:01;;;;;;;;;;;22.30;95.80;;;;;;5073147;28;19912;-69
2022/04/03 02:16:28;;;;;;;;;;;22.30;95.00;;;;;;5072941;28;19916;-69
2022/04/03 02:18:55;;;;;;;;;;;22.20;95.30;;;;;;5059182;28;19912;-70
2022/04/03 02:21:21;;;;;;;;;;;22.20;94.10;;;;;;5059626;28;19996;-70
2022/04/03 02:23:51;;;;;;;;;;;22.10;94.80;;;;;;5052960;28;19955;-69
2022/04/03 02:26:18;;;;;;;;;;;22.00;94.80;;;;;;5052372;28;19919;-68
2022/04/03 02:28:45;;;;;;;;;;;22.00;94.70;;;;;;5052003;28;19940;-69
2022/04/03 02:31:12;;;;;;;;;;;22.10;95.00;;;;;;5052721;28;19921;-69
2022/04/03 02:33:38;;;;;;;;;;;22.10;94.30;;;;;;5052459;28;20011;-70
2022/04/03 02:36:05;;;;;;;;;;;22.00;95.50;;;;;;5052851;28;19908;-69
2022/04/03 02:38:33;;;;;;;;;;;22.00;95.20;;;;;;5051965;28;19916;-69
2022/04/03 02:40:59;;;;;;;;;;;22.20;94.10;;;;;;5052233;28;19909;-69
2022/04/03 02:43:26;;;;;;;;;;;22.30;94.20;;;;;;5051859;28;19947;-70
2022/04/03 02:45:53;;;;;;;;;;;22.20;95.10;;;;;;5052555;28;20291;-69
2022/04/03 02:48:19;;;;;;;;;;;22.30;93.90;;;;;;5052246;28;20275;-69
2022/04/03 02:50:46;;;;;;;;;;;22.40;94.90;;;;;;5052507;28;20386;-70
2022/04/03 02:53:13;;;;;;;;;;;22.50;93.90;;;;;;5051850;28;20013;-69
2022/04/03 02:55:39;;;;;;;;;;;22.50;94.20;;;;;;5051675;28;19967;-69
2022/04/03 02:58:06;;;;;;;;;;;22.60;93.90;;;;;;5051276;28;19909;-68
2022/04/03 03:00:35;;;;;;;;;;;22.70;94.80;;;;;;5052255;28;19915;-69
2022/04/03 03:03:04;;;;;;;;;;;22.80;93.20;;;;;;5053438;28;19909;-69
2022/04/03 03:05:32;;;;;;;;;;;22.70;93.70;;;;;;5055670;28;19921;-69
2022/04/03 03:07:59;;;;;;;;;;;22.70;92.80;;;;;;5056130;28;19928;-69
2022/04/03 03:10:25;;;;;;;;;;;22.50;93.50;;;;;;5055283;28;20011;-70
2022/04/03 03:12:52;;;;;;;;;;;22.50;93.70;;;;;;5055111;28;19908;-69
2022/04/03 03:15:19;;;;;;;;;;;22.40;94.30;;;;;;5055860;28;19913;-69
2022/04/03 03:17:46;;;;;;;;;;;22.60;94.10;;;;;;5055575;28;19909;-69
2022/04/03 03:20:13;;;;;;;;;;;22.60;93.60;;;;;;5055092;28;20386;-70
2022/04/03 03:22:39;;;;;;;;;;;22.60;93.90;;;;;;5055556;28;20300;-70
2022/04/03 03:25:07;;;;;;;;;;;22.50;94.80;;;;;;5055430;28;19932;-69
2022/04/03 03:27:39;;;;;;;;;;;22.50;94.80;;;;;;5054887;28;19975;-70
2022/04/03 03:30:07;;;;;;;;;;;22.60;93.50;;;;;;5054948;28;19917;-69
2022/04/03 03:32:33;;;;;;;;;;;22.60;93.80;;;;;;5055223;28;19909;-69
2022/04/03 03:35:01;;;;;;;;;;;22.40;94.70;;;;;;5055140;28;19916;-69
2022/04/03 03:37:27;;;;;;;;;;;22.50;95.20;;;;;;5054599;28;19919;-70
2022/04/03 03:39:54;;;;;;;;;;;22.60;94.70;;;;;;5055278;28;19909;-69
2022/04/03 03:42:21;;;;;;;;;;;22.70;94.60;;;;;;5055139;28;19912;-68
2022/04/03 03:44:47;;;;;;;;;;;22.70;94.20;;;;;;5055464;28;19996;-69
2022/04/03 03:47:14;;;;;;;;;;;22.70;95.00;;;;;;5055263;28;19940;-70
2022/04/03 03:49:41;;;;;;;;;;;22.70;94.60;;;;;;5055312;28;20378;-70
2022/04/03 03:52:07;;;;;;;;;;;22.70;94.70;;;;;;5054939;28;19920;-69
2022/04/03 03:54:34;;;;;;;;;;;22.50;95.50;;;;;;5054833;28;19908;-69
2022/04/03 03:57:01;;;;;;;;;;;22.60;94.10;;;;;;5061025;28;19909;-70
2022/04/03 03:59:27;;;;;;;;;;;22.70;94.70;;;;;;5075269;28;19920;-69
2022/04/03 04:01:54;;;;;;;;;;;22.70;93.60;;;;;;5075224;28;19909;-69
2022/04/03 04:04:21;;;;;;;;;;;22.80;92.90;;;;;;5074817;28;20302;-69
2022/04/03 04:06:48;;;;;;;;;;;22.90;92.90;;;;;;5075469;28;20051;-69
2022/04/03 04:09:15;;;;;;;;;;;23.00;92.70;;;;;;5090424;28;19982;-70
2022/04/03 04:11:42;;;;;;;;;;;22.80;94.50;;;;;;5075053;28;19919;-68
2022/04/03 04:14:08;;;;;;;;;;;22.80;94.50;;;;;;5074632;28;19931;-69
2022/04/03 04:16:35;;;;;;;;;;;22.70;94.30;;;;;;5075041;28;19909;-69
2022/04/03 04:19:01;;;;;;;;;;;22.80;95.90;;;;;;5074869;28;19915;-69
2022/04/03 04:21:28;;;;;;;;;;;22.80;94.50;;;;;;5074842;28;19999;-70
2022/04/03 04:23:55;;;;;;;;;;;22.80;93.90;;;;;;5074740;28;19908;-70
2022/04/03 04:26:22;;;;;;;;;;;23.00;94.20;;;;;;5074665;28;19948;-69
2022/04/03 04:28:50;;;;;;;;;;;22.80;95.60;;;;;;5074813;28;19909;-70
2022/04/03 04:31:17;;;;;;;;;;;22.80;95.10;;;;;;5074707;28;19954;-69
2022/04/03 04:33:43;;;;;;;;;;;22.80;94.80;;;;;;5074620;28;20359;-69
2022/04/03 04:36:10;;;;;;;;;;;22.80;94.20;;;;;;5074192;28;20362;-69
2022/04/03 04:38:37;;;;;;;;;;;22.80;94.70;;;;;;5074405;28;19909;-69
2022/04/03 04:41:04;;;;;;;;;;;22.70;94.50;;;;;;5073298;28;20432;-69
2022/04/03 04:43:31;;;;;;;;;;;22.60;94.70;;;;;;5074342;28;19955;-69
2022/04/03 04:45:58;;;;;;;;;;;22.90;94.60;;;;;;5074492;28;19912;-68
2022/04/03 04:48:26;;;;;;;;;;;22.90;94.90;;;;;;5074013;28;19909;-68
2022/04/03 04:50:52;;;;;;;;;;;22.90;94.60;;;;;;5074297;28;20012;-68
2022/04/03 04:53:19;;;;;;;;;;;23.00;94.40;;;;;;5074268;28;19915;-68
2022/04/03 04:55:46;;;;;;;;;;;22.90;95.30;;;;;;5074333;28;19913;-68
2022/04/03 04:58:13;;;;;;;;;;;22.90;94.70;;;;;;5073989;28;20018;-68
2022/04/03 05:00:39;;;;;;;;;;;23.00;95.00;;;;;;5074030;28;19962;-68
2022/04/03 05:03:06;;;;;;;;;;;23.00;95.20;;;;;;5073940;28;20347;-68
2022/04/03 05:05:33;;;;;;;;;;;23.00;94.60;;;;;;5074003;28;19924;-68
2022/04/03 05:08:00;;;;;;;;;;;23.00;95.10;;;;;;5074056;28;19914;-68
2022/04/03 05:10:29;;;;;;;;;;;23.00;95.00;;;;;;5073533;28;19920;-68
2022/04/03 05:13:00;;;;;;;;;;;23.00;94.80;;;;;;5073322;27;21319;-69
2022/04/03 05:15:28;;;;;;;;;;;22.90;95.30;;;;;;5073936;28;20282;-69
2022/04/03 05:17:55;;;;;;;;;;;22.90;94.90;;;;;;5073720;28;19916;-68
2022/04/03 05:20:22;;;;;;;;;;;23.00;94.80;;;;;;5073591;28;19915;-68
2022/04/03 05:22:49;;;;;;;;;;;23.00;95.10;;;;;;5073653;28;20350;-68
2022/04/03 05:25:15;;;;;;;;;;;23.00;95.30;;;;;;5073050;28;19915;-70
2022/04/03 05:27:44;;;;;;;;;;;23.00;96.60;;;;;;5073717;28;20315;-70
2022/04/03 05:30:12;;;;;;;;;;;22.80;96.50;;;;;;5073464;28;20286;-70
2022/04/03 05:32:38;;;;;;;;;;;22.70;96.80;;;;;;5073643;28;19966;-70
2022/04/03 05:35:06;;;;;;;;;;;22.60;96.60;;;;;;5073571;28;19940;-68
2022/04/03 05:37:32;;;;;;;;;;;22.60;95.80;;;;;;5072312;28;19915;-69
2022/04/03 05:39:59;;;;;;;;;;;22.60;96.10;;;;;;5073549;28;19943;-69
2022/04/03 05:42:26;;;;;;;;;;;22.50;97.30;;;;;;5073358;28;19915;-70
2022/04/03 05:44:53;;;;;;;;;;;22.40;99.10;;;;;;5073413;28;20433;-70
2022/04/03 05:47:20;;;;;;;;;;;22.30;98.80;;;;;;5073530;28;19962;-69
2022/04/03 05:49:47;;;;;;;;;;;22.20;99.90;;;;;;5073389;28;19919;-69
2022/04/03 05:52:14;;;;;;;;;;;22.00;99.10;;;;;;5073148;28;19963;-69
2022/04/03 05:54:40;;;;;;;;;;;21.90;99.70;;;;;;5073304;28;19915;-69
2022/04/03 05:57:09;;;;;;;;;;;22.00;98.10;;;;;;5070275;28;20140;-69
2022/04/03 05:59:35;;;;;;;;;;;22.10;98.00;;;;;;5061908;28;20015;-69
2022/04/03 06:02:03;;;;;;;;;;;22.00;98.80;;;;;;5053234;28;19931;-69
2022/04/03 06:04:30;;;;;;;;;;;22.00;98.50;;;;;;5052203;28;19967;-69
2022/04/03 06:06:57;;;;;;;;;;;22.10;98.80;;;;;;5052463;28;19912;-69
2022/04/03 06:09:24;;;;;;;;;;;22.10;98.20;;;;;;5052326;28;19917;-70
2022/04/03 06:11:52;;;;;;;;;;;22.10;98.80;;;;;;5052437;28;20000;-69
2022/04/03 06:14:18;;;;;;;;;;;22.10;99.10;;;;;;5052143;28;20359;-69
2022/04/03 06:16:45;;;;;;;;;;;22.00;98.60;;;;;;5051873;28;19954;-69
2022/04/03 06:19:12;;;;;;;;;;;22.10;98.50;;;;;;5052383;28;20004;-69
2022/04/03 06:21:39;;;;;;;;;;;22.10;98.80;;;;;;5052288;28;19955;-69
2022/04/03 06:24:06;;;;;;;;;;;22.00;98.20;;;;;;5052069;28;19912;-69
2022/04/03 06:26:33;;;;;;;;;;;22.00;98.70;;;;;;5052395;28;19909;-69
2022/04/03 06:28:59;;;;;;;;;;;22.00;98.80;;;;;;5052327;28;20286;-69
2022/04/03 06:31:26;;;;;;;;;;;22.00;99.70;;;;;;5051849;28;19924;-69
2022/04/03 06:33:53;;;;;;;;;;;21.90;99.20;;;;;;5052128;28;19909;-69
2022/04/03 06:36:19;;;;;;;;;;;21.80;98.50;;;;;;5051958;28;20047;-69
2022/04/03 06:38:46;;;;;;;;;;;21.80;98.60;;;;;;5054785;28;19944;-69
2022/04/03 06:41:13;;;;;;;;;;;21.80;98.60;;;;;;5056212;28;19909;-69
2022/04/03 06:43:39;;;;;;;;;;;21.80;97.80;;;;;;5055989;28;19909;-69
2022/04/03 06:46:06;;;;;;;;;;;21.80;98.30;;;;;;5055455;28;19916;-70
2022/04/03 06:48:32;;;;;;;;;;;21.80;98.80;;;;;;5056145;28;20059;-69
2022/04/03 06:51:00;;;;;;;;;;;21.70;97.90;;;;;;5055715;28;19917;-69
2022/04/03 06:53:27;;;;;;;;;;;21.60;99.50;;;;;;5055741;28;19936;-69
2022/04/03 06:55:53;;;;;;;;;;;21.60;99.00;;;;;;5055900;28;20314;-70
2022/04/03 06:58:20;;;;;;;;;;;21.60;98.10;;;;;;5055561;28;20260;-69
2022/04/03 07:00:47;;;;;;;;;;;21.60;98.80;;;;;;5055861;28;19955;-69
2022/04/03 07:03:13;;;;;;;;;;;21.60;99.40;;;;;;5055307;28;19909;-69
2022/04/03 07:05:40;;;;;;;;;;;21.50;98.40;;;;;;5068070;28;20367;-69
2022/04/03 07:08:07;;;;;;;;;;;21.50;98.10;;;;;;5075952;28;19948;-69
2022/04/03 07:10:33;;;;;;;;;;;21.50;98.80;;;;;;5076284;28;19917;-69
2022/04/03 07:13:00;;;;;;;;;;;21.40;98.40;;;;;;5076296;28;19912;-69
2022/04/03 07:15:27;;;;;;;;;;;21.50;98.30;;;;;;5076193;28;19915;-69
2022/04/03 07:17:53;;;;;;;;;;;21.40;98.30;;;;;;5076186;28;19991;-69
2022/04/03 07:20:20;;;;;;;;;;;21.30;98.90;;;;;;5075834;28;19915;-69
2022/04/03 07:22:47;;;;;;;;;;;21.30;98.80;;;;;;5075873;28;19909;-70
2022/04/03 07:25:14;;;;;;;;;;;21.30;97.90;;;;;;5075948;28;19908;-70
2022/04/03 07:27:41;;;;;;;;;;;21.30;98.50;;;;;;5075985;28;19909;-70
2022/04/03 07:30:09;;;;;;;;;;;21.20;98.10;;;;;;5075610;28;20379;-70
2022/04/03 07:32:36;;;;;;;;;;;21.20;98.70;;;;;;5075979;28;19908;-70
2022/04/03 07:35:03;;;;;;;;;;;21.20;97.70;;;;;;5075638;28;20274;-70
2022/04/03 07:37:30;;;;;;;;;;;21.20;99.50;;;;;;5075746;28;19942;-71
2022/04/03 07:39:57;;;;;;;;;;;21.20;98.10;;;;;;5075657;28;20343;-70
2022/04/03 07:42:24;;;;;;;;;;;21.20;97.90;;;;;;5075560;28;20007;-70
2022/04/03 07:44:50;;;;;;;;;;;21.20;98.30;;;;;;5075846;28;19912;-70
2022/04/03 07:47:17;;;;;;;;;;;21.10;97.80;;;;;;5075675;28;19909;-70
2022/04/03 07:49:44;;;;;;;;;;;21.10;97.80;;;;;;5075054;28;20374;-70
2022/04/03 07:52:10;;;;;;;;;;;21.10;98.00;;;;;;5075167;28;19908;-71
2022/04/03 07:54:38;;;;;;;;;;;21.00;98.50;;;;;;5075622;28;20358;-70
2022/04/03 07:57:10;;;;;;;;;;;21.00;97.60;;;;;;5075429;28;19908;-71
2022/04/03 07:59:37;;;;;;;;;;;21.00;97.90;;;;;;5071110;28;19916;-70
2022/04/03 08:02:03;;;;;;;;;;;20.90;98.20;;;;;;5065069;28;19958;-69
2022/04/03 08:04:30;;;;;;;;;;;21.00;97.60;;;;;;5054272;28;19921;-69
2022/04/03 08:06:57;;;;;;;;;;;21.00;98.20;;;;;;5053197;28;19932;-69
2022/04/03 08:09:24;;;;;;;;;;;21.00;97.80;;;;;;5054310;28;19913;-69
2022/04/03 08:11:50;;;;;;;;;;;20.90;97.50;;;;;;5053714;28;19916;-69
2022/04/03 08:14:18;;;;;;;;;;;20.90;97.60;;;;;;5054232;28;19909;-69
2022/04/03 08:16:45;;;;;;;;;;;20.90;97.40;;;;;;5054411;28;20011;-69
2022/04/03 08:19:12;;;;;;;;;;;20.80;97.10;;;;;;5054327;28;19916;-69
2022/04/03 08:21:38;;;;;;;;;;;20.80;98.40;;;;;;5054084;28;19913;-69
2022/04/03 08:24:05;;;;;;;;;;;20.80;98.20;;;;;;5053902;28;20365;-70
2022/04/03 08:26:32;;;;;;;;;;;20.70;97.80;;;;;;5053701;28;19908;-70
2022/04/03 08:28:59;;;;;;;;;;;20.70;97.90;;;;;;5053808;28;19916;-70
2022/04/03 08:31:27;;;;;;;;;;;20.80;97.20;;;;;;5053959;28;19937;-70
2022/04/03 08:33:54;;;;;;;;;;;20.70;97.40;;;;;;5053826;28;20279;-69
2022/04/03 08:36:21;;;;;;;;;;;20.70;98.20;;;;;;5053663;28;19916;-69
2022/04/03 08:38:50;;;;;;;;;;;20.70;97.50;;;;;;5054000;28;20398;-70
2022/04/03 08:41:17;;;;;;;;;;;20.70;97.70;;;;;;5053374;28;19909;-70
2022/04/03 08:43:46;;;;;;;;;;;20.60;97.60;;;;;;5053804;28;20306;-70
2022/04/03 08:46:13;;;;;;;;;;;20.60;98.30;;;;;;5053676;28;20054;-70
2022/04/03 08:48:43;;;;;;;;;;;20.60;98.10;;;;;;5053687;28;19932;-70
2022/04/03 08:51:09;;;;;;;;;;;20.50;97.60;;;;;;5053542;28;19940;-70
2022/04/03 08:53:38;;;;;;;;;;;20.60;97.80;;;;;;5053550;28;19916;-70
2022/04/03 08:56:05;;;;;;;;;;;20.50;98.00;;;;;;5052833;28;19908;-70
2022/04/03 08:58:32;;;;;;;;;;;20.50;97.70;;;;;;5053278;28;19919;-69
2022/04/03 09:01:01;;;;;;;;;;;20.40;98.00;;;;;;5052573;28;19966;-69
2022/04/03 09:03:28;;;;;;;;;;;20.40;97.30;;;;;;5053284;28;19955;-70
2022/04/03 09:06:10;;;;;;;;;;;20.40;98.70;;;;;;5053541;28;19928;-70
2022/04/03 09:08:37;;;;;;;;;;;20.30;98.10;;;;;;5053150;28;20348;-70
2022/04/03 09:11:07;;;;;;;;;;;20.30;98.00;;;;;;5052556;28;19924;-70
2022/04/03 09:13:34;;;;;;;;;;;20.30;98.50;;;;;;5053124;28;19944;-70
2022/04/03 09:16:01;;;;;;;;;;;20.30;97.50;;;;;;5053085;28;19915;-70
2022/04/03 09:18:46;;;;;;;;;;;20.30;98.10;;;;;;5052877;28;20393;-70
2022/04/03 09:21:24;;;;;;;;;;;20.30;98.50;;;;;;5052965;28;19908;-70
2022/04/03 09:23:58;;;;;;;;;;;20.30;97.80;;;;;;5052960;28;19908;-70
2022/04/03 09:26:24;;;;;;;;;;;20.30;97.40;;;;;;5052595;28;19908;-70
2022/04/03 09:29:05;;;;;;;;;;;20.30;96.70;;;;;;5052740;28;20287;-70
2022/04/03 09:31:31;;;;;;;;;;;20.30;97.60;;;;;;5052827;28;20378;-70
2022/04/03 09:34:02;;;;;;;;;;;20.30;97.30;;;;;;5053024;28;19923;-69
2022/04/03 09:36:33;;;;;;;;;;;20.30;97.30;;;;;;5051469;28;19916;-71
2022/04/03 09:39:07;;;;;;;;;;;20.30;97.20;;;;;;5052944;28;19916;-71
2022/04/03 09:41:52;;;;;;;;;;;20.40;97.20;;;;;;5052311;28;19908;-70
2022/04/03 09:44:18;;;;;;;;;;;20.30;97.70;;;;;;5052365;28;19935;-70
2022/04/03 09:46:45;;;;;;;;;;;20.20;97.60;;;;;;5053074;28;20447;-71
2022/04/03 09:49:24;;;;;;;;;;;20.20;97.70;;;;;;5053144;28;19960;-69
2022/04/03 09:51:50;;;;;;;;;;;20.20;97.10;;;;;;5053122;28;19916;-69
2022/04/03 09:54:21;;;;;;;;;;;20.20;98.00;;;;;;5052482;28;19909;-69
2022/04/03 09:56:48;;;;;;;;;;;20.10;97.50;;;;;;5051935;28;19913;-69
2022/04/03 09:59:15;;;;;;;;;;;20.10;97.80;;;;;;5052428;28;19992;-69
2022/04/03 10:01:43;;;;;;;;;;;20.00;98.20;;;;;;5052622;28;20016;-69
2022/04/03 10:04:09;;;;;;;;;;;20.00;98.30;;;;;;5051159;28;19928;-69
2022/04/03 10:06:38;;;;;;;;;;;19.90;98.10;;;;;;5052597;28;19908;-69
2022/04/03 10:09:07;;;;;;;;;;;19.90;98.50;;;;;;5059095;28;20287;-69
2022/04/03 10:11:34;;;;;;;;;;;19.90;98.40;;;;;;5061464;28;19920;-69
2022/04/03 10:14:01;;;;;;;;;;;19.90;98.60;;;;;;5057126;28;20473;-69
2022/04/03 10:16:28;;;;;;;;;;;19.80;97.50;;;;;;5056813;28;19960;-69
2022/04/03 10:18:54;;;;;;;;;;;19.80;98.80;;;;;;5056986;28;19913;-69
2022/04/03 10:21:30;;;;;;;;;;;19.80;98.10;;;;;;5056754;28;19909;-70
2022/04/03 10:24:15;;;;;;;;;;;19.80;98.60;;;;;;5056583;28;19999;-69
2022/04/03 10:26:43;;;;;;;;;;;19.80;98.10;;;;;;5056550;28;20279;-69
2022/04/03 10:29:10;;;;;;;;;;;19.80;98.80;;;;;;5056787;28;19927;-69
2022/04/03 10:31:53;;;;;;;;;;;19.80;98.00;;;;;;5056892;28;19917;-70
2022/04/03 10:34:21;;;;;;;;;;;19.80;99.20;;;;;;5056628;28;19916;-70
2022/04/03 10:36:49;;;;;;;;;;;19.80;98.50;;;;;;5056478;28;20011;-69
2022/04/03 10:39:24;;;;;;;;;;;19.70;98.60;;;;;;5056177;28;19912;-69
2022/04/03 10:41:50;;;;;;;;;;;19.70;98.20;;;;;;5056870;28;19947;-68
2022/04/03 10:44:21;;;;;;;;;;;19.70;98.40;;;;;;5056513;28;20414;-69
2022/04/03 10:47:05;;;;;;;;;;;19.70;99.10;;;;;;5056545;28;19909;-69
2022/04/03 10:49:32;;;;;;;;;;;19.70;98.50;;;;;;5056314;28;20314;-68
2022/04/03 10:52:05;;;;;;;;;;;19.60;98.80;;;;;;5056812;28;20373;-69
2022/04/03 10:54:32;;;;;;;;;;;19.60;99.00;;;;;;5055842;28;20389;-69
2022/04/03 10:57:17;;;;;;;;;;;19.60;99.10;;;;;;5056994;28;20375;-69
2022/04/03 10:59:43;;;;;;;;;;;19.60;98.90;;;;;;5056787;28;19955;-69
2022/04/03 11:02:16;;;;;;;;;;;19.60;98.70;;;;;;5056033;28;20282;-68
2022/04/03 11:04:43;;;;;;;;;;;19.60;98.80;;;;;;5056406;28;20372;-69
2022/04/03 11:07:13;;;;;;;;;;;19.60;99.10;;;;;;5056453;28;20363;-69
2022/04/03 11:09:41;;;;;;;;;;;19.60;99.20;;;;;;5055988;28;19924;-69
2022/04/03 11:12:08;;;;;;;;;;;19.60;98.80;;;;;;5056453;28;19917;-69
2022/04/03 11:14:55;;;;;;;;;;;19.60;98.80;;;;;;5056242;28;19909;-68
2022/04/03 11:17:40;;;;;;;;;;;19.60;99.20;;;;;;5056483;28;19909;-69
2022/04/03 11:20:07;;;;;;;;;;;19.60;98.80;;;;;;5056365;28;20260;-69
2022/04/03 11:22:34;;;;;;;;;;;19.60;98.80;;;;;;5055746;28;20327;-68
2022/04/03 11:25:01;;;;;;;;;;;19.60;98.80;;;;;;5052312;28;19909;-68
2022/04/03 11:27:28;;;;;;;;;;;19.70;99.10;;;;;;5052828;28;19913;-68
2022/04/03 11:29:54;;;;;;;;;;;19.70;98.90;;;;;;5053067;28;19917;-69
2022/04/03 11:32:21;;;;;;;;;;;19.70;99.20;;;;;;5052926;28;20274;-68
2022/04/03 11:35:01;;;;;;;;;;;19.60;99.10;;;;;;5052951;28;19913;-68
2022/04/03 11:37:28;;;;;;;;;;;19.70;98.40;;;;;;5052908;28;20322;-69
2022/04/03 11:39:55;;;;;;;;;;;19.70;98.50;;;;;;5052356;28;19992;-69
2022/04/03 11:42:25;;;;;;;;;;;19.70;98.30;;;;;;5052434;28;19909;-68
2022/04/03 11:44:53;;;;;;;;;;;19.70;98.10;;;;;;5052868;28;19952;-69
2022/04/03 11:47:21;;;;;;;;;;;19.70;98.60;;;;;;5052902;28;19917;-69
2022/04/03 11:50:03;;;;;;;;;;;19.70;98.10;;;;;;5052971;28;19925;-69
2022/04/03 11:52:30;;;;;;;;;;;19.70;99.00;;;;;;5052429;28;20201;-69
2022/04/03 11:54:57;;;;;;;;;;;19.70;98.50;;;;;;5051911;28;19934;-69
2022/04/03 11:57:23;;;;;;;;;;;19.70;98.20;;;;;;5052612;28;20382;-70
2022/04/03 11:59:53;;;;;;;;;;;19.70;98.40;;;;;;5052863;28;19909;-70
2022/04/03 12:02:20;;;;;;;;;;;19.80;97.80;;;;;;5052612;28;19994;-70
2022/04/03 12:04:47;;;;;;;;;;;19.80;97.50;;;;;;5052568;28;19928;-70
2022/04/03 12:07:16;;;;;;;;;;;19.80;97.70;;;;;;5052168;28;19930;-71
2022/04/03 12:09:44;;;;;;;;;;;19.80;98.20;;;;;;5051878;28;20291;-70
2022/04/03 12:12:11;;;;;;;;;;;19.80;98.90;;;;;;5052055;28;19913;-70
2022/04/03 12:14:41;;;;;;;;;;;19.70;98.90;;;;;;5052259;28;20367;-71
2022/04/03 12:17:09;;;;;;;;;;;19.70;97.20;;;;;;5052220;28;19934;-70
2022/04/03 12:19:44;;;;;;;;;;;19.70;97.90;;;;;;5051931;28;19932;-70
2022/04/03 12:22:14;;;;;;;;;;;19.70;98.00;;;;;;5051898;28;19974;-68
2022/04/03 12:24:43;;;;;;;;;;;19.70;97.70;;;;;;5051514;28;19923;-69
2022/04/03 12:27:16;;;;;;;;;;;19.60;97.90;;;;;;5052054;28;19908;-69
2022/04/03 12:29:53;;;;;;;;;;;19.60;97.70;;;;;;5051852;28;20042;-69
2022/04/03 12:32:26;;;;;;;;;;;19.60;97.70;;;;;;5052027;28;19999;-69
2022/04/03 12:34:53;;;;;;;;;;;19.60;97.80;;;;;;5050564;28;20383;-69
2022/04/03 12:37:20;;;;;;;;;;;19.60;97.70;;;;;;5051664;28;19912;-69
2022/04/03 12:39:49;;;;;;;;;;;19.60;98.40;;;;;;5051318;28;19912;-69
2022/04/03 12:42:26;;;;;;;;;;;19.60;98.40;;;;;;5051767;28;19964;-69
2022/04/03 12:44:59;;;;;;;;;;;19.50;98.90;;;;;;5072158;28;19920;-69
2022/04/03 12:47:42;;;;;;;;;;;19.50;99.00;;;;;;5051492;28;19913;-69
2022/04/03 12:50:13;;;;;;;;;;;19.50;97.70;;;;;;5051645;28;19931;-69
2022/04/03 12:52:43;;;;;;;;;;;19.60;98.70;;;;;;5051379;28;19909;-69
2022/04/03 12:55:24;;;;;;;;;;;19.60;98.30;;;;;;5051507;28;19909;-69
2022/04/03 13:00:42;;;;;;;;;;;19.50;98.40;;;;;;5050965;28;19966;-70
2022/04/03 13:03:08;;;;;;;;;;;19.50;98.70;;;;;;5051412;28;20012;-70
2022/04/03 13:05:35;;;;;;;;;;;19.40;99.00;;;;;;5062720;28;19931;-70
2022/04/03 13:08:12;;;;;;;;;;;19.40;98.30;;;;;;5071961;28;19947;-70
2022/04/03 13:10:57;;;;;;;;;;;19.40;98.30;;;;;;5071810;28;19943;-70
2022/04/03 13:13:25;;;;;;;;;;;19.40;98.90;;;;;;5071474;28;20303;-70
2022/04/03 13:15:53;;;;;;;;;;;19.40;99.10;;;;;;5071891;28;19916;-70
2022/04/03 13:18:20;;;;;;;;;;;19.30;99.10;;;;;;5071619;28;20015;-69
2022/04/03 13:20:56;;;;;;;;;;;19.40;99.00;;;;;;5071609;28;20326;-69
2022/04/03 13:23:23;;;;;;;;;;;19.30;99.10;;;;;;5071743;28;20377;-70
2022/04/03 13:25:51;;;;;;;;;;;19.30;98.60;;;;;;5071404;28;20632;-69
2022/04/03 13:28:18;;;;;;;;;;;19.30;98.70;;;;;;5071450;28;19995;-70
2022/04/03 13:30:47;;;;;;;;;;;19.30;98.70;;;;;;5071578;28;19920;-69
2022/04/03 13:33:14;;;;;;;;;;;19.30;99.10;;;;;;5071356;28;19916;-69
2022/04/03 13:35:40;;;;;;;;;;;19.30;98.90;;;;;;5071406;28;20282;-69
2022/04/03 13:38:08;;;;;;;;;;;19.30;99.00;;;;;;5070907;28;19915;-69
2022/04/03 13:40:35;;;;;;;;;;;19.30;99.10;;;;;;5071578;28;19990;-69
2022/04/03 13:43:15;;;;;;;;;;;19.30;99.00;;;;;;5071463;28;19908;-70
2022/04/03 13:45:57;;;;;;;;;;;19.30;98.60;;;;;;5071310;28;19961;-70
2022/04/03 13:48:25;;;;;;;;;;;19.40;98.80;;;;;;5071193;28;20278;-70
2022/04/03 13:50:53;;;;;;;;;;;19.30;98.70;;;;;;5071257;28;19920;-69
2022/04/03 13:53:20;;;;;;;;;;;19.30;99.10;;;;;;5071109;28;19916;-69
2022/04/03 13:55:47;;;;;;;;;;;19.30;98.80;;;;;;5071313;28;19908;-69
2022/04/03 13:58:14;;;;;;;;;;;19.20;99.50;;;;;;5071020;28;19915;-69
2022/04/03 14:00:41;;;;;;;;;;;19.30;99.20;;;;;;5071135;28;20274;-69
2022/04/03 14:03:08;;;;;;;;;;;19.20;99.20;;;;;;5071282;28;20245;-69
2022/04/03 14:05:35;;;;;;;;;;;19.20;99.00;;;;;;5070713;28;20325;-69
2022/04/03 14:08:03;;;;;;;;;;;19.20;99.60;;;;;;5071228;28;19912;-69
2022/04/03 14:10:30;;;;;;;;;;;19.10;99.90;;;;;;5070875;28;19916;-69
2022/04/03 14:12:57;;;;;;;;;;;19.20;99.90;;;;;;5071068;28;20373;-69
2022/04/03 14:15:24;;;;;;;;;;;19.10;99.50;;;;;;5071128;28;19909;-69
2022/04/03 14:17:51;;;;;;;;;;;19.00;99.90;;;;;;5070959;28;19908;-69
2022/04/03 14:20:17;;;;;;;;;;;19.00;99.90;;;;;;5070835;28;20003;-69
2022/04/03 14:22:44;;;;;;;;;;;18.90;99.70;;;;;;5071091;28;19950;-69
2022/04/03 14:25:10;;;;;;;;;;;18.90;99.70;;;;;;5071057;28;20359;-69